createdAt,value
2023-03-26T07:18:29.343Z,10.51
2023-03-26T07:19:24.363Z,6.02
2023-03-26T07:20:19.700Z,5.92
2023-03-26T07:21:15.107Z,6.46
2023-03-26T07:22:10.492Z,7.35
2023-03-26T07:23:05.815Z,8.32
2023-03-26T07:24:00.971Z,9.41
2023-03-26T07:24:56.295Z,10.56
2023-03-26T07:25:51.650Z,11.78
2023-03-26T07:26:47.054Z,13.00
2023-03-26T07:27:42.421Z,14.32
2023-03-26T07:28:37.953Z,15.57
2023-03-26T07:29:33.072Z,16.88
2023-03-26T07:30:28.453Z,18.17
2023-03-26T07:31:23.704Z,19.50
2023-03-26T07:32:19.316Z,20.88
2023-03-26T07:33:14.414Z,22.33
2023-03-26T07:34:09.779Z,23.75
2023-03-26T07:35:05.067Z,25.07
2023-03-26T07:36:00.433Z,26.41
2023-03-26T07:36:55.708Z,27.95
2023-03-26T07:37:51.273Z,29.53
2023-03-26T07:38:46.469Z,30.98
2023-03-26T07:39:41.754Z,32.60
2023-03-26T07:40:37.093Z,33.84
2023-03-26T07:41:32.543Z,35.27
2023-03-26T07:42:27.794Z,36.83
2023-03-26T07:43:23.046Z,38.49
2023-03-26T07:44:18.281Z,39.85
2023-03-26T07:45:13.672Z,41.43
2023-03-26T07:46:09.065Z,42.92
2023-03-26T07:47:04.304Z,44.28
2023-03-26T07:47:59.729Z,45.84
2023-03-26T07:48:55.247Z,47.16
2023-03-26T07:49:50.489Z,48.28
2023-03-26T07:50:45.886Z,49.60
2023-03-26T07:51:41.155Z,51.27
2023-03-26T07:52:36.603Z,52.43
2023-03-26T07:53:31.981Z,53.92
2023-03-26T07:54:27.229Z,55.65
2023-03-26T07:55:22.572Z,57.02
2023-03-26T07:56:18.019Z,58.33
2023-03-26T07:57:13.273Z,59.88
2023-03-26T07:58:08.730Z,61.38
2023-03-26T07:59:04.223Z,62.44
2023-03-26T07:59:59.367Z,63.15
2023-03-26T08:00:54.854Z,64.22
2023-03-26T08:01:50.055Z,65.68
2023-03-26T08:02:45.634Z,66.79
2023-03-26T08:03:40.916Z,67.98
2023-03-26T08:04:36.285Z,70.04
2023-03-26T08:05:31.519Z,71.36
2023-03-26T08:06:26.850Z,72.53
2023-03-26T08:07:22.263Z,73.75
2023-03-26T08:08:17.648Z,75.42
2023-03-26T08:09:13.019Z,76.74
2023-03-26T08:10:08.280Z,77.88
2023-03-26T08:11:03.598Z,79.52
2023-03-26T08:11:58.937Z,81.06
2023-03-26T08:12:54.296Z,82.34
2023-03-26T08:13:49.762Z,84.00
2023-03-26T08:14:44.878Z,84.68
2023-03-26T08:15:40.183Z,86.43
2023-03-26T08:16:35.502Z,87.71
2023-03-26T08:17:31.321Z,88.83
2023-03-26T08:18:26.093Z,88.83
2023-03-26T08:19:21.384Z,89.49
2023-03-26T08:20:16.644Z,91.16
2023-03-26T08:21:11.927Z,91.36
2023-03-26T08:22:07.421Z,91.86
2023-03-26T08:23:02.792Z,93.40
2023-03-26T08:23:57.955Z,94.57
2023-03-26T08:24:53.201Z,95.54
2023-03-26T08:25:48.519Z,94.33
2023-03-26T08:26:43.949Z,95.85
2023-03-26T08:27:39.187Z,97.30
2023-03-26T08:28:34.350Z,98.28
2023-03-26T08:29:29.863Z,98.57
2023-03-26T08:30:25.117Z,99.27
2023-03-26T08:31:20.617Z,99.57
2023-03-26T08:32:15.929Z,100.04
2023-03-26T08:33:11.563Z,100.65
2023-03-26T08:34:06.725Z,101.69
2023-03-26T08:35:02.048Z,102.95
2023-03-26T08:35:57.478Z,103.71
2023-03-26T08:36:52.913Z,104.30
2023-03-26T08:37:48.396Z,105.28
2023-03-26T08:38:45.141Z,105.89
2023-03-26T08:39:39.021Z,106.29
2023-03-26T08:40:34.367Z,107.94
2023-03-26T08:41:29.629Z,108.29
2023-03-26T08:42:25.055Z,108.15
2023-03-26T08:43:20.301Z,110.15
2023-03-26T08:44:15.695Z,111.62
2023-03-26T08:45:10.950Z,112.75
2023-03-26T08:46:06.336Z,112.68
2023-03-26T08:47:01.907Z,115.01
2023-03-26T08:47:57.254Z,116.37
2023-03-26T08:48:52.383Z,117.85
2023-03-26T08:49:47.912Z,119.45
2023-03-26T08:50:43.087Z,119.79
2023-03-26T08:51:38.548Z,120.23
2023-03-26T08:52:33.865Z,121.01
2023-03-26T08:53:29.289Z,121.72
2023-03-26T08:54:24.696Z,122.70
2023-03-26T08:55:20.165Z,124.35
2023-03-26T08:56:15.631Z,125.94
2023-03-26T08:57:11.291Z,126.32
2023-03-26T08:58:06.454Z,127.39
2023-03-26T08:59:01.942Z,127.87
2023-03-26T08:59:57.389Z,127.58
2023-03-26T09:00:52.955Z,127.78
2023-03-26T09:01:48.192Z,129.36
2023-03-26T09:02:43.740Z,129.06
2023-03-26T09:03:38.868Z,129.56
2023-03-26T09:04:34.316Z,130.57
2023-03-26T09:05:29.617Z,131.92
2023-03-26T09:06:25.418Z,132.86
2023-03-26T09:07:20.728Z,133.50
2023-03-26T09:08:15.918Z,134.14
2023-03-26T09:09:18.709Z,133.82
2023-03-26T09:10:07.846Z,134.68
2023-03-26T09:11:02.076Z,135.89
2023-03-26T09:11:57.492Z,135.67
2023-03-26T09:12:53.171Z,135.67
2023-03-26T09:13:48.324Z,135.89
2023-03-26T09:14:43.820Z,135.78
2023-03-26T09:15:39.160Z,136.22
2023-03-26T09:16:34.647Z,137.12
2023-03-26T09:17:29.961Z,134.04
2023-03-26T09:18:25.300Z,133.39
2023-03-26T09:19:20.696Z,127.19
2023-03-26T09:20:16.322Z,119.54
2023-03-26T09:21:11.508Z,116.78
2023-03-26T09:22:07.117Z,118.43
2023-03-26T09:23:02.287Z,119.62
2023-03-26T09:23:57.765Z,121.81
2023-03-26T09:24:53.042Z,122.16
2023-03-26T09:25:48.543Z,124.53
2023-03-26T09:26:43.849Z,126.52
2023-03-26T09:27:39.465Z,125.09
2023-03-26T09:28:34.630Z,105.08
2023-03-26T09:29:32.319Z,94.25
2023-03-26T09:30:25.462Z,85.37
2023-03-26T09:31:20.785Z,83.00
2023-03-26T09:32:16.146Z,83.24
2023-03-26T09:33:11.289Z,84.51
2023-03-26T09:34:06.664Z,88.45
2023-03-26T09:35:02.035Z,92.57
2023-03-26T09:35:57.322Z,95.14
2023-03-26T09:36:52.700Z,99.33
2023-03-26T09:37:57.523Z,102.76
2023-03-26T09:38:44.451Z,104.62
2023-03-26T09:39:38.732Z,104.95
2023-03-26T09:40:34.241Z,105.75
2023-03-26T09:41:29.512Z,106.29
2023-03-26T09:42:25.057Z,107.66
2023-03-26T09:43:20.205Z,108.43
2023-03-26T09:44:15.661Z,111.40
2023-03-26T09:45:10.948Z,115.97
2023-03-26T09:46:06.312Z,118.69
2023-03-26T09:47:01.617Z,120.84
2023-03-26T09:47:56.970Z,122.88
2023-03-26T09:48:52.289Z,124.72
2023-03-26T09:49:47.744Z,126.71
2023-03-26T09:50:43.166Z,128.37
2023-03-26T09:51:38.464Z,129.16
2023-03-26T09:52:33.822Z,130.57
2023-03-26T09:53:29.140Z,131.29
2023-03-26T09:54:24.432Z,133.29
2023-03-26T09:55:19.894Z,125.47
2023-03-26T09:56:15.198Z,125.75
2023-03-26T09:57:10.856Z,129.46
2023-03-26T09:58:06.052Z,133.18
2023-03-26T09:59:01.586Z,137.23
2023-03-26T09:59:56.764Z,141.18
2023-03-26T10:00:52.470Z,144.23
2023-03-26T10:01:47.783Z,145.87
2023-03-26T10:02:46.299Z,147.16
2023-03-26T10:03:38.629Z,147.94
2023-03-26T10:04:34.194Z,149.40
2023-03-26T10:05:29.629Z,150.74
2023-03-26T10:06:25.032Z,152.12
2023-03-26T10:07:20.563Z,152.54
2023-03-26T10:08:15.802Z,151.71
2023-03-26T10:09:11.194Z,152.82
2023-03-26T10:10:06.878Z,151.02
2023-03-26T10:11:02.228Z,150.34
2023-03-26T10:11:57.821Z,150.34
2023-03-26T10:12:57.714Z,149.26
2023-03-26T10:13:49.574Z,151.84
2023-03-26T10:14:43.919Z,152.96
2023-03-26T10:15:39.361Z,153.38
2023-03-26T10:16:34.940Z,154.23
2023-03-26T10:17:30.356Z,154.09
2023-03-26T10:18:27.070Z,154.51
2023-03-26T10:19:21.083Z,155.96
2023-03-26T10:20:16.242Z,153.52
2023-03-26T10:21:11.750Z,155.09
2023-03-26T10:22:07.191Z,155.81
2023-03-26T10:23:02.618Z,155.96
2023-03-26T10:23:58.039Z,157.13
2023-03-26T10:24:53.500Z,156.10
2023-03-26T10:25:48.848Z,155.09
2023-03-26T10:27:10.072Z,153.38
2023-03-26T10:27:41.215Z,155.23
2023-03-26T10:28:35.490Z,159.08
2023-03-26T10:29:30.714Z,159.54
2023-03-26T10:30:26.434Z,159.54
2023-03-26T10:31:21.781Z,159.54
2023-03-26T10:32:17.353Z,156.10
2023-03-26T10:33:12.614Z,162.33
2023-03-26T10:34:08.090Z,168.39
2023-03-26T10:35:03.790Z,176.03
2023-03-26T10:35:59.411Z,176.77
2023-03-26T10:36:54.868Z,174.19
2023-03-26T10:37:50.252Z,183.78
2023-03-26T10:38:45.818Z,192.60
2023-03-26T10:39:43.502Z,203.34
2023-03-26T10:40:36.665Z,209.57
2023-03-26T10:41:32.402Z,214.36
2023-03-26T10:42:27.638Z,215.35
2023-03-26T10:43:22.923Z,212.01
2023-03-26T10:44:18.371Z,209.44
2023-03-26T10:45:13.717Z,206.67
2023-03-26T10:46:09.332Z,204.22
2023-03-26T10:47:04.791Z,213.67
2023-03-26T10:48:00.201Z,216.77
2023-03-26T10:48:55.385Z,227.91
2023-03-26T10:49:50.814Z,234.26
2023-03-26T10:50:46.303Z,236.11
2023-03-26T10:51:41.718Z,240.26
2023-03-26T10:52:37.379Z,243.47
2023-03-26T10:53:32.686Z,244.74
2023-03-26T10:54:28.309Z,239.91
2023-03-26T10:55:25.522Z,234.09
2023-03-26T10:56:19.331Z,227.28
2023-03-26T10:57:14.732Z,222.65
2023-03-26T10:58:10.319Z,217.92
2023-03-26T10:59:05.615Z,221.30
2023-03-26T11:00:00.992Z,227.12
2023-03-26T11:00:56.710Z,228.87
2023-03-26T11:01:51.870Z,225.56
2023-03-26T11:02:47.529Z,219.67
2023-03-26T11:03:42.810Z,212.83
2023-03-26T11:04:38.104Z,217.49
2023-03-26T11:05:33.471Z,220.71
2023-03-26T11:06:28.919Z,228.07
2023-03-26T11:07:24.276Z,235.94
2023-03-26T11:08:19.725Z,240.62
2023-03-26T11:09:15.924Z,241.50
2023-03-26T11:10:10.527Z,243.65
2023-03-26T11:11:05.961Z,250.35
2023-03-26T11:12:01.471Z,255.41
2023-03-26T11:12:57.046Z,255.01
2023-03-26T11:13:52.712Z,256.81
2023-03-26T11:14:47.819Z,260.69
2023-03-26T11:15:43.158Z,262.57
2023-03-26T11:16:38.741Z,258.23
2023-03-26T11:17:40.963Z,246.58
2023-03-26T11:18:30.526Z,240.26
2023-03-26T11:19:24.812Z,234.09
2023-03-26T11:20:20.407Z,245.48
2023-03-26T11:21:19.950Z,271.02
2023-03-26T11:22:11.274Z,287.66
2023-03-26T11:23:06.785Z,291.49
2023-03-26T11:24:05.471Z,299.20
2023-03-26T11:24:57.326Z,305.04
2023-03-26T11:25:52.906Z,310.52
2023-03-26T11:26:48.506Z,314.69
2023-03-26T11:27:43.701Z,323.38
2023-03-26T11:28:39.159Z,330.21
2023-03-26T11:29:34.494Z,338.39
2023-03-26T11:30:29.656Z,340.85
2023-03-26T11:31:25.157Z,352.95
2023-03-26T11:32:20.475Z,351.06
2023-03-26T11:33:16.096Z,347.34
2023-03-26T11:34:11.237Z,331.21
2023-03-26T11:35:06.756Z,311.70
2023-03-26T11:36:02.231Z,299.20
2023-03-26T11:36:57.667Z,289.18
2023-03-26T11:37:53.071Z,279.81
2023-03-26T11:38:48.802Z,283.68
2023-03-26T11:39:44.205Z,286.90
2023-03-26T11:40:39.616Z,295.43
2023-03-26T11:41:35.009Z,303.63
2023-03-26T11:42:30.577Z,304.47
2023-03-26T11:43:26.016Z,308.19
2023-03-26T11:44:21.315Z,306.75
2023-03-26T11:45:16.681Z,296.49
2023-03-26T11:46:12.230Z,294.63
2023-03-26T11:47:07.705Z,287.91
2023-03-26T11:48:03.195Z,288.16
2023-03-26T11:48:58.733Z,280.77
2023-03-26T11:49:53.981Z,274.88
2023-03-26T11:50:49.348Z,276.51
2023-03-26T11:51:44.980Z,286.40
2023-03-26T11:52:40.334Z,296.76
2023-03-26T11:53:35.925Z,302.23
2023-03-26T11:54:31.283Z,292.53
2023-03-26T11:55:26.797Z,293.05
2023-03-26T11:56:22.156Z,282.94
2023-03-26T11:57:17.647Z,286.40
2023-03-26T11:58:12.900Z,289.69
2023-03-26T11:59:08.555Z,294.37
2023-03-26T12:00:03.696Z,293.84
2023-03-26T12:00:59.314Z,289.69
2023-03-26T12:01:54.485Z,273.28
2023-03-26T12:02:49.975Z,266.62
2023-03-26T12:03:45.442Z,269.69
2023-03-26T12:04:40.704Z,271.92
2023-03-26T12:05:35.920Z,277.21
2023-03-26T12:06:31.257Z,274.65
2023-03-26T12:07:26.532Z,282.21
2023-03-26T12:08:22.001Z,282.94
2023-03-26T12:09:17.583Z,284.17
2023-03-26T12:10:17.830Z,285.40
2023-03-26T12:11:09.150Z,281.49
2023-03-26T12:12:03.409Z,282.21
2023-03-26T12:12:58.675Z,298.38
2023-03-26T12:13:54.234Z,307.33
2023-03-26T12:14:49.323Z,329.88
2023-03-26T12:15:44.902Z,351.43
2023-03-26T12:16:40.057Z,365.53
2023-03-26T12:17:35.476Z,371.74
2023-03-26T12:18:30.875Z,373.86
2023-03-26T12:19:26.374Z,372.16
2023-03-26T12:20:21.529Z,384.34
2023-03-26T12:21:17.095Z,396.69
2023-03-26T12:22:12.246Z,409.60
2023-03-26T12:23:07.708Z,415.47
2023-03-26T12:24:03.013Z,414.44
2023-03-26T12:24:58.610Z,415.47
2023-03-26T12:25:53.738Z,414.44
2023-03-26T12:26:49.222Z,415.21
2023-03-26T12:27:44.534Z,420.71
2023-03-26T12:28:41.471Z,427.73
2023-03-26T12:29:35.359Z,432.45
2023-03-26T12:30:30.893Z,444.85
2023-03-26T12:31:26.404Z,461.80
2023-03-26T12:33:17.241Z,490.32
2023-03-26T12:34:13.026Z,489.60
2023-03-26T12:35:08.309Z,489.96
2023-03-26T12:36:03.812Z,475.29
2023-03-26T12:36:59.331Z,478.70
2023-03-26T12:37:54.794Z,472.26
2023-03-26T12:39:42.737Z,471.59
2023-03-26T12:40:06.646Z,468.28
2023-03-26T12:40:42.275Z,479.39
2023-03-26T12:43:51.346Z,508.64
2023-03-26T12:44:50.336Z,542.58
2023-03-26T12:44:53.052Z,569.94
2023-03-26T12:44:53.964Z,580.86
2023-03-26T12:45:19.802Z,592.21
2023-03-26T12:47:56.097Z,601.29
2023-03-26T12:48:00.155Z,598.06
2023-03-26T12:48:06.391Z,573.37
2023-03-26T12:49:01.105Z,557.55
2023-03-26T12:49:56.266Z,594.33
2023-03-26T12:50:51.506Z,641.19
2023-03-26T12:51:46.880Z,639.34
2023-03-26T12:52:42.665Z,605.66
2023-03-26T12:53:38.262Z,570.43
2023-03-26T12:54:33.405Z,559.89
2023-03-26T12:55:29.036Z,553.39
2023-03-26T12:56:24.408Z,549.74
2023-03-26T12:57:19.845Z,552.01
2023-03-26T12:58:15.360Z,555.23
2023-03-26T12:59:10.855Z,544.35
2023-03-26T13:00:05.976Z,552.47
2023-03-26T13:01:01.388Z,563.20
2023-03-26T13:01:56.990Z,564.63
2023-03-26T13:02:52.391Z,547.48
2023-03-26T13:03:47.735Z,523.83
2023-03-26T13:04:51.906Z,504.03
2023-03-26T13:05:39.583Z,482.86
2023-03-26T13:06:59.208Z,478.70
2023-03-26T13:07:30.415Z,479.39
2023-03-26T13:08:24.906Z,524.24
2023-03-26T13:09:20.243Z,533.89
2023-03-26T13:10:15.703Z,400.26
2023-03-26T13:11:11.086Z,353.33
2023-03-26T13:12:06.600Z,381.05
2023-03-26T13:13:02.092Z,399.78
2023-03-26T13:13:57.641Z,470.93
2023-03-26T13:14:52.985Z,494.32
2023-03-26T13:15:49.108Z,515.73
2023-03-26T13:16:44.043Z,543.47
2023-03-26T13:17:39.587Z,559.42
2023-03-26T13:18:34.910Z,560.84
2023-03-26T13:19:30.168Z,574.36
2023-03-26T13:20:25.553Z,597.52
2023-03-26T13:21:21.012Z,615.16
2023-03-26T13:22:16.413Z,636.90
2023-03-26T13:23:12.063Z,637.51
2023-03-26T13:24:07.607Z,660.23
2023-03-26T13:25:02.882Z,682.53
2023-03-26T13:25:58.241Z,661.54
2023-03-26T13:26:53.719Z,616.87
2023-03-26T13:27:49.055Z,569.46
2023-03-26T13:28:44.738Z,526.72
2023-03-26T13:29:39.965Z,517.73
2023-03-26T13:30:35.550Z,518.94
2023-03-26T13:31:31.111Z,529.65
2023-03-26T13:32:26.632Z,569.94
2023-03-26T13:33:22.217Z,610.09
2023-03-26T13:34:17.636Z,653.76
2023-03-26T13:35:13.068Z,664.84
2023-03-26T13:36:22.610Z,665.50
2023-03-26T13:37:04.874Z,653.76
2023-03-26T13:37:59.334Z,620.31
2023-03-26T13:38:59.139Z,605.66
2023-03-26T13:39:51.379Z,588.04
2023-03-26T13:40:45.946Z,605.66
2023-03-26T13:41:41.376Z,617.44
2023-03-26T13:42:37.025Z,624.38
2023-03-26T13:43:32.436Z,657.63
2023-03-26T13:44:28.006Z,674.25
2023-03-26T13:45:23.347Z,669.51
2023-03-26T13:46:18.733Z,658.93
2023-03-26T13:47:14.531Z,648.04
2023-03-26T13:48:09.788Z,568.00
2023-03-26T13:49:05.300Z,555.69
2023-03-26T13:50:00.961Z,555.23
2023-03-26T13:50:56.273Z,558.02
2023-03-26T13:51:51.543Z,571.41
2023-03-26T13:52:46.943Z,564.63
2023-03-26T13:53:42.419Z,585.97
2023-03-26T13:54:37.898Z,591.69
2023-03-26T13:55:33.260Z,587.00
2023-03-26T13:56:28.529Z,575.85
2023-03-26T13:57:24.045Z,576.84
2023-03-26T13:58:19.330Z,559.42
2023-03-26T13:59:14.661Z,599.13
2023-03-26T14:00:10.641Z,620.89
2023-03-26T14:01:05.615Z,626.13
2023-03-26T14:02:01.178Z,619.73
2023-03-26T14:02:56.889Z,612.90
2023-03-26T14:03:52.176Z,607.32
2023-03-26T14:04:47.510Z,589.08
2023-03-26T14:05:43.133Z,583.92
2023-03-26T14:06:38.346Z,617.44
2023-03-26T14:07:33.685Z,631.47
2023-03-26T14:08:32.655Z,627.90
2023-03-26T14:09:25.916Z,611.77
2023-03-26T14:10:21.535Z,592.74
2023-03-26T14:11:16.818Z,581.37
2023-03-26T14:12:21.168Z,559.89
2023-03-26T14:13:08.340Z,533.04
2023-03-26T14:14:02.356Z,513.34
2023-03-26T14:14:57.633Z,509.03
2023-03-26T14:15:52.449Z,504.03
2023-03-26T14:16:47.617Z,514.14
2023-03-26T14:17:42.687Z,513.74
2023-03-26T14:18:37.682Z,500.25
2023-03-26T14:19:32.753Z,496.52
2023-03-26T14:20:28.077Z,499.50
2023-03-26T14:21:22.910Z,513.34
2023-03-26T14:22:18.176Z,523.83
2023-03-26T14:23:13.403Z,525.48
2023-03-26T14:24:08.978Z,533.47
2023-03-26T14:25:04.619Z,539.95
2023-03-26T14:25:59.946Z,547.48
2023-03-26T14:26:55.347Z,559.42
2023-03-26T14:27:50.745Z,571.90
2023-03-26T14:28:46.171Z,575.85
2023-03-26T14:29:56.674Z,558.49
2023-03-26T14:30:38.373Z,577.34
2023-03-26T14:31:32.896Z,588.04
2023-03-26T14:32:28.321Z,598.06
2023-03-26T14:33:27.345Z,604.02
2023-03-26T14:34:19.224Z,618.58
2023-03-26T14:35:14.624Z,635.08
2023-03-26T14:36:09.601Z,639.96
2023-03-26T14:37:04.700Z,599.67
2023-03-26T14:37:59.711Z,578.35
2023-03-26T14:38:54.756Z,571.41
2023-03-26T14:39:49.752Z,574.86
2023-03-26T14:40:44.986Z,590.64
2023-03-26T14:41:39.861Z,597.52
2023-03-26T14:42:34.947Z,607.32
2023-03-26T14:43:31.844Z,626.13
2023-03-26T14:44:26.960Z,667.50
2023-03-26T14:45:22.128Z,688.88
2023-03-26T14:46:17.155Z,727.98
2023-03-26T14:47:14.834Z,758.52
2023-03-26T14:48:09.687Z,835.42
2023-03-26T14:49:02.261Z,886.45
2023-03-26T14:49:57.409Z,874.84
2023-03-26T14:50:52.815Z,844.40
2023-03-26T14:51:47.939Z,804.70
2023-03-26T14:52:44.514Z,870.27
2023-03-26T14:53:40.179Z,957.68
2023-03-26T14:54:35.940Z,1036.49
2023-03-26T14:55:31.595Z,1139.08
2023-03-26T14:56:26.839Z,1220.29
2023-03-26T14:57:22.954Z,1271.43
2023-03-26T14:58:18.241Z,1380.56
2023-03-26T14:59:14.106Z,1503.38
2023-03-26T15:00:09.698Z,1500.00
2023-03-26T15:01:04.935Z,1573.36
2023-03-26T15:02:00.572Z,1664.59
2023-03-26T15:02:56.147Z,1632.03
2023-03-26T15:03:51.488Z,1518.77
2023-03-26T15:04:47.924Z,1593.08
2023-03-26T15:05:43.346Z,1737.15
2023-03-26T15:06:39.334Z,1821.28
2023-03-26T15:07:34.883Z,1897.66
2023-03-26T15:08:33.899Z,2018.14
2023-03-26T15:09:26.302Z,2077.82
2023-03-26T15:10:22.049Z,2104.02
2023-03-26T15:11:17.745Z,2139.42
2023-03-26T15:12:13.673Z,2039.72
2023-03-26T15:13:08.586Z,1953.18
2023-03-26T15:14:04.449Z,1851.59
2023-03-26T15:14:59.906Z,1660.45
2023-03-26T15:15:55.366Z,1417.20
2023-03-26T15:16:51.705Z,991.09
2023-03-26T15:17:47.102Z,1074.88
2023-03-26T15:18:42.924Z,1213.64
2023-03-26T15:19:38.397Z,1402.31
2023-03-26T15:20:34.102Z,1498.32
2023-03-26T15:21:29.635Z,1293.60
2023-03-26T15:22:26.103Z,1415.69
2023-03-26T15:23:20.829Z,1489.95
2023-03-26T15:24:16.131Z,1555.04
2023-03-26T15:25:11.880Z,1676.08
2023-03-26T15:26:07.612Z,1810.17
2023-03-26T15:27:03.271Z,1796.77
2023-03-26T15:27:58.641Z,1957.48
2023-03-26T15:28:55.161Z,1973.39
2023-03-26T15:29:50.708Z,2055.43
2023-03-26T15:30:46.514Z,2146.30
2023-03-26T15:31:41.774Z,2225.00
2023-03-26T15:32:37.357Z,2144.58
2023-03-26T15:33:33.048Z,2232.44
2023-03-26T15:34:28.731Z,2272.34
2023-03-26T15:35:24.719Z,2323.76
2023-03-26T15:36:19.984Z,2442.82
2023-03-26T15:37:15.478Z,2526.02
2023-03-26T15:38:11.255Z,2699.70
2023-03-26T15:39:06.630Z,2781.25
2023-03-26T15:40:02.324Z,2710.66
2023-03-26T15:41:01.101Z,2804.62
2023-03-26T15:41:56.494Z,2775.47
2023-03-26T15:42:51.784Z,2861.74
2023-03-26T15:43:54.993Z,2937.29
2023-03-26T15:44:54.188Z,2892.74
2023-03-26T15:45:38.632Z,2880.26
2023-03-26T15:46:33.499Z,2763.98
2023-03-26T15:47:28.648Z,2433.91
2023-03-26T15:48:28.083Z,2004.51
2023-03-26T15:49:23.656Z,1758.89
2023-03-26T15:50:19.274Z,1796.77
2023-03-26T15:51:15.175Z,1855.45
2023-03-26T15:52:10.559Z,2001.50
2023-03-26T15:53:06.003Z,1974.85
2023-03-26T15:54:02.267Z,1988.09
2023-03-26T15:54:58.056Z,2035.06
2023-03-26T15:55:53.733Z,2115.69
2023-03-26T15:56:49.320Z,2151.49
2023-03-26T15:57:44.481Z,2077.82
2023-03-26T15:58:39.965Z,1888.26
2023-03-26T15:59:36.114Z,1811.40
2023-03-26T16:00:31.567Z,1794.35
2023-03-26T16:01:26.967Z,1754.27
2023-03-26T16:02:22.426Z,1772.91
2023-03-26T16:03:17.399Z,1827.52
2023-03-26T16:04:12.685Z,1929.19
2023-03-26T16:05:07.609Z,2039.72
2023-03-26T16:06:02.868Z,1882.93
2023-03-26T16:06:57.901Z,2000.00
2023-03-26T16:07:56.572Z,2060.19
2023-03-26T16:08:51.775Z,2105.68
2023-03-26T16:09:46.817Z,2105.68
2023-03-26T16:10:41.882Z,1957.48
2023-03-26T16:11:36.916Z,1933.38
2023-03-26T16:12:32.000Z,1740.55
2023-03-26T16:13:27.013Z,1815.09
2023-03-26T16:14:23.763Z,1813.86
2023-03-26T16:15:18.018Z,1748.53
2023-03-26T16:16:13.522Z,1794.35
2023-03-26T16:17:08.994Z,1826.27
2023-03-26T16:18:04.736Z,1783.57
2023-03-26T16:19:00.094Z,1797.98
2023-03-26T16:19:55.934Z,1827.52
2023-03-26T16:20:51.363Z,1789.54
2023-03-26T16:21:46.746Z,1788.35
2023-03-26T16:22:43.789Z,1828.77
2023-03-26T16:23:47.738Z,1591.18
2023-03-26T16:24:34.279Z,893.57
2023-03-26T16:25:29.365Z,1003.76
2023-03-26T16:26:24.470Z,1163.91
2023-03-26T16:27:19.827Z,1306.26
2023-03-26T16:28:15.318Z,1370.64
2023-03-26T16:29:12.140Z,1406.74
2023-03-26T16:30:07.355Z,1455.83
2023-03-26T16:31:03.175Z,1414.19
2023-03-26T16:31:59.678Z,1303.71
2023-03-26T16:32:53.900Z,1184.56
2023-03-26T16:33:50.459Z,1068.85
2023-03-26T16:34:45.789Z,981.62
2023-03-26T16:35:41.788Z,907.55
2023-03-26T16:36:36.914Z,853.58
2023-03-26T16:37:32.493Z,787.15
2023-03-26T16:38:28.142Z,710.91
2023-03-26T16:39:23.645Z,658.28
2023-03-26T16:40:18.869Z,616.30
2023-03-26T16:41:15.293Z,578.35
2023-03-26T16:42:10.603Z,566.55
2023-03-26T16:43:06.342Z,538.64
2023-03-26T16:44:01.622Z,508.26
2023-03-26T16:44:56.917Z,486.39
2023-03-26T16:45:52.712Z,473.60
2023-03-26T16:46:48.182Z,475.29
2023-03-26T16:47:43.902Z,463.72
2023-03-26T16:48:39.274Z,453.32
2023-03-26T16:49:34.722Z,442.20
2023-03-26T16:50:30.264Z,428.83
2023-03-26T16:51:25.541Z,411.12
2023-03-26T16:52:20.962Z,405.12
2023-03-26T16:53:17.032Z,388.60
2023-03-26T16:54:12.455Z,376.43
2023-03-26T16:55:08.365Z,380.61
2023-03-26T16:56:03.660Z,396.22
2023-03-26T16:56:59.076Z,405.62
2023-03-26T16:57:54.910Z,417.82
2023-03-26T16:58:50.315Z,428.83
2023-03-26T16:59:46.328Z,429.94
2023-03-26T17:00:42.344Z,427.46
2023-03-26T17:01:37.394Z,413.16
2023-03-26T17:02:32.935Z,403.16
2023-03-26T17:03:28.611Z,406.61
2023-03-26T17:04:23.935Z,413.92
2023-03-26T17:05:19.428Z,413.67
2023-03-26T17:06:15.067Z,430.21
2023-03-26T17:07:10.564Z,438.99
2023-03-26T17:08:05.880Z,433.85
2023-03-26T17:09:02.084Z,428.83
2023-03-26T17:09:57.512Z,433.01
2023-03-26T17:10:53.402Z,441.61
2023-03-26T17:11:48.583Z,443.96
2023-03-26T17:12:43.830Z,447.24
2023-03-26T17:13:39.156Z,437.27
2023-03-26T17:14:34.418Z,447.84
2023-03-26T17:15:31.191Z,453.32
2023-03-26T17:16:26.342Z,462.76
2023-03-26T17:17:22.199Z,459.25
2023-03-26T17:18:17.472Z,464.69
2023-03-26T17:19:12.602Z,483.21
2023-03-26T17:20:08.331Z,481.12
2023-03-26T17:21:04.023Z,480.77
2023-03-26T17:21:59.624Z,496.52
2023-03-26T17:22:54.961Z,479.39
2023-03-26T17:23:50.291Z,473.27
2023-03-26T17:24:46.216Z,491.04
2023-03-26T17:25:41.595Z,525.07
2023-03-26T17:26:36.765Z,536.04
2023-03-26T17:27:33.171Z,546.59
2023-03-26T17:28:28.486Z,553.85
2023-03-26T17:29:24.240Z,561.31
2023-03-26T17:30:19.603Z,81.14
2023-03-26T17:31:15.110Z,52.76
2023-03-26T17:32:10.194Z,25.72
2023-03-26T17:33:05.491Z,21.07
2023-03-26T17:34:00.912Z,24.14
2023-03-26T17:34:58.296Z,34.63
2023-03-26T17:35:53.716Z,52.24
2023-03-26T17:36:48.698Z,75.42
2023-03-26T17:37:44.042Z,99.69
2023-03-26T17:38:39.108Z,119.88
2023-03-26T17:39:34.117Z,136.56
2023-03-26T17:40:29.159Z,159.99
2023-03-26T17:41:24.335Z,188.94
2023-03-26T17:42:19.398Z,222.65
2023-03-26T17:43:14.427Z,245.48
2023-03-26T17:44:09.428Z,259.86
2023-03-26T17:45:04.478Z,278.15
2023-03-26T17:46:02.686Z,297.57
2023-03-26T17:46:54.604Z,311.70
2023-03-26T17:47:49.714Z,329.55
2023-03-26T17:48:44.801Z,353.33
2023-03-26T17:49:39.804Z,368.40
2023-03-26T17:50:34.858Z,380.61
2023-03-26T17:51:30.007Z,383.46
2023-03-26T17:52:24.872Z,378.88
2023-03-26T17:53:19.942Z,394.58
2023-03-26T17:54:15.020Z,407.60
2023-03-26T17:55:10.077Z,417.55
2023-03-26T17:56:05.182Z,436.98
2023-03-26T17:57:00.206Z,448.74
2023-03-26T17:57:55.243Z,466.97
2023-03-26T17:58:50.228Z,478.02
2023-03-26T17:59:45.361Z,484.27
2023-03-26T18:00:40.429Z,479.74
2023-03-26T18:01:35.671Z,483.91
2023-03-26T18:02:30.620Z,495.79
2023-03-26T18:03:25.631Z,513.74
2023-03-26T18:04:20.757Z,526.72
2023-03-26T18:05:15.848Z,531.34
2023-03-26T18:06:10.960Z,530.07
2023-03-26T18:07:05.994Z,535.18
2023-03-26T18:08:01.070Z,549.29
2023-03-26T18:08:56.162Z,556.16
2023-03-26T18:09:51.203Z,558.49
2023-03-26T18:10:46.850Z,565.59
2023-03-26T18:11:42.311Z,559.89
2023-03-26T18:12:38.065Z,570.92
2023-03-26T18:13:33.206Z,532.19
2023-03-26T18:14:28.467Z,515.73
2023-03-26T18:15:24.191Z,523.42
2023-03-26T18:16:19.465Z,543.47
2023-03-26T18:17:14.749Z,558.02
2023-03-26T18:18:10.933Z,582.39
2023-03-26T18:19:06.105Z,595.39
2023-03-26T18:20:01.905Z,598.59
2023-03-26T18:20:57.224Z,591.69
2023-03-26T18:21:52.575Z,595.92
2023-03-26T18:22:48.185Z,571.90
2023-03-26T18:23:43.381Z,560.36
2023-03-26T18:24:39.350Z,566.07
2023-03-26T18:25:34.414Z,575.85
2023-03-26T18:26:29.719Z,580.86
2023-03-26T18:27:25.812Z,590.12
2023-03-26T18:28:20.853Z,599.67
2023-03-26T18:29:16.158Z,607.32
2023-03-26T18:30:12.196Z,602.38
2023-03-26T18:31:07.400Z,587.52
2023-03-26T18:32:03.254Z,563.20
2023-03-26T18:33:00.125Z,552.93
2023-03-26T18:33:53.707Z,573.37
2023-03-26T18:34:48.788Z,587.00
2023-03-26T18:35:44.022Z,460.84
2023-03-26T18:36:42.063Z,441.61
2023-03-26T18:37:37.379Z,398.35
2023-03-26T18:38:37.575Z,415.99
2023-03-26T18:39:29.271Z,445.15
2023-03-26T18:40:23.600Z,474.95
2023-03-26T18:41:18.582Z,509.03
2023-03-26T18:42:23.197Z,509.42
2023-03-26T18:43:11.256Z,527.98
2023-03-26T18:44:06.045Z,508.26
2023-03-26T18:45:02.763Z,500.25
2023-03-26T18:45:56.474Z,519.34
2023-03-26T18:46:51.472Z,521.37
2023-03-26T18:47:46.609Z,518.53
2023-03-26T18:48:46.096Z,531.77
2023-03-26T18:49:41.258Z,543.47
2023-03-26T18:50:36.572Z,556.16